Terminal Aerodrome Forecast
Issued by NWS Chicago, IL

Home | Current Version | Previous Version | Text Only | Print | Product List | Glossary Off
Versions: 1 2 3 4 5 6 7 8 9 10 11 12 13 14 15 16 17 18 19 20 21 22 23 24

000
FTUS43 KLOT 252109 AAA
TAFRFD
TAF AMD
KRFD 252109Z 2521/2618 24009KT P6SM -SHRA VCTS SCT050CB BKN150
      OVC250
     FM252300 21006KT P6SM VCSH BKN040 BKN150
     FM260700 21006KT P6SM SCT050 BKN150
     FM261400 24009KT P6SM FEW045 SCT250=

USA.gov is the U.S. government's official web portal to all federal, state and local government web resources and services.